createdAt,value
2022-12-23T00:00:45.821Z,18.67
2022-12-23T00:03:12.959Z,19.13
2022-12-23T00:05:41.202Z,19.63
2022-12-23T00:08:08.461Z,18.20
2022-12-23T00:10:39.758Z,19.80
2022-12-23T00:13:26.467Z,18.23
2022-12-23T00:16:14.700Z,21.23
2022-12-23T00:18:42.985Z,17.60
2022-12-23T00:21:14.157Z,20.10
2022-12-23T00:23:45.267Z,19.20
2022-12-23T00:26:27.347Z,17.27
2022-12-23T00:28:57.953Z,19.03
2022-12-23T00:31:26.062Z,20.80
2022-12-23T00:33:54.389Z,20.87
2022-12-23T00:36:25.356Z,19.93
2022-12-23T00:39:11.258Z,21.03
2022-12-23T00:41:57.131Z,19.73
2022-12-23T00:44:24.908Z,23.07
2022-12-23T00:46:52.220Z,25.13
2022-12-23T00:49:38.954Z,21.57
2022-12-23T00:52:09.704Z,27.00
2022-12-23T00:54:37.069Z,27.27
2022-12-23T00:57:04.444Z,25.53
2022-12-23T00:59:31.488Z,26.10
2022-12-23T01:02:17.138Z,25.87
2022-12-23T01:05:02.686Z,25.97
2022-12-23T01:07:29.761Z,26.43
2022-12-23T01:09:56.804Z,26.27
2022-12-23T01:12:23.966Z,24.57
2022-12-23T01:14:51.019Z,25.47
2022-12-23T01:17:19.125Z,23.73
2022-12-23T01:19:46.187Z,26.60
2022-12-23T01:22:13.253Z,24.20
2022-12-23T01:24:40.326Z,27.03
2022-12-23T01:27:07.390Z,23.70
2022-12-23T01:29:34.444Z,24.90
2022-12-23T01:32:01.632Z,21.07
2022-12-23T01:34:36.041Z,23.33
2022-12-23T01:37:04.930Z,25.90
2022-12-23T01:39:32.046Z,24.17
2022-12-23T01:42:17.993Z,26.63
2022-12-23T01:44:50.802Z,25.17
2022-12-23T01:47:39.770Z,25.87
2022-12-23T01:50:22.550Z,29.33
2022-12-23T01:53:08.900Z,26.80
2022-12-23T01:56:04.549Z,25.53
2022-12-23T01:58:52.466Z,26.57
2022-12-23T02:01:38.525Z,24.67
2022-12-23T02:04:10.455Z,25.73
2022-12-23T02:07:01.820Z,29.30
2022-12-23T02:09:34.952Z,27.03
2022-12-23T02:12:21.470Z,29.10
2022-12-23T02:15:13.162Z,22.63
2022-12-23T02:18:37.337Z,23.40
2022-12-23T02:21:28.994Z,24.93
2022-12-23T02:24:32.245Z,24.43
2022-12-23T02:27:49.228Z,24.13
2022-12-23T02:30:43.532Z,24.27
2022-12-23T02:33:39.597Z,20.83
2022-12-23T02:36:32.487Z,22.83
2022-12-23T02:39:29.852Z,22.20
2022-12-23T02:42:07.612Z,21.57
2022-12-23T02:44:57.000Z,20.77
2022-12-23T02:47:30.696Z,20.47
2022-12-23T02:50:02.947Z,19.17
2022-12-23T02:52:34.425Z,20.57
2022-12-23T02:55:09.723Z,19.60
2022-12-23T02:57:41.428Z,21.52
2022-12-23T03:00:10.333Z,21.67
2022-12-23T03:02:40.115Z,19.23
2022-12-23T03:05:44.472Z,24.73
2022-12-23T03:08:18.749Z,23.43
2022-12-23T03:11:04.560Z,21.07
2022-12-23T03:14:20.630Z,22.93
2022-12-23T03:17:25.186Z,21.00
2022-12-23T03:20:19.491Z,21.33
2022-12-23T03:23:08.703Z,21.38
2022-12-23T03:25:50.352Z,24.70
2022-12-23T03:28:31.337Z,20.63
2022-12-23T03:31:01.456Z,18.67
2022-12-23T03:33:34.573Z,18.90
2022-12-23T03:36:18.989Z,20.93
2022-12-23T03:38:47.087Z,18.47
2022-12-23T03:41:22.807Z,18.50
2022-12-23T03:43:55.273Z,18.43
2022-12-23T03:47:18.335Z,21.07
2022-12-23T03:49:57.428Z,24.27
2022-12-23T03:52:42.693Z,20.87
2022-12-23T03:55:18.434Z,25.87
2022-12-23T03:57:58.633Z,24.30
2022-12-23T04:00:30.853Z,19.33
2022-12-23T04:03:09.044Z,18.97
2022-12-23T04:05:51.103Z,22.10
2022-12-23T04:08:33.538Z,22.97
2022-12-23T04:11:01.527Z,20.37
2022-12-23T04:13:29.450Z,21.10
2022-12-23T04:16:06.924Z,22.20
2022-12-23T04:18:34.305Z,19.27
2022-12-23T04:21:01.386Z,23.67
2022-12-23T04:23:28.489Z,20.83
2022-12-23T04:25:55.581Z,19.30
2022-12-23T04:28:22.646Z,20.97
2022-12-23T04:30:49.741Z,17.80
2022-12-23T04:33:16.839Z,21.03
2022-12-23T04:35:43.940Z,21.40
2022-12-23T04:38:11.595Z,21.30
2022-12-23T04:40:38.676Z,18.70
2022-12-23T04:43:05.697Z,18.00
2022-12-23T04:45:33.191Z,20.37
2022-12-23T04:48:00.228Z,22.83
2022-12-23T04:50:27.287Z,20.00
2022-12-23T04:52:54.365Z,19.50
2022-12-23T04:55:21.508Z,19.25
2022-12-23T04:57:48.589Z,20.60
2022-12-23T05:00:16.294Z,18.33
2022-12-23T05:02:43.583Z,18.70
2022-12-23T05:05:10.761Z,18.77
2022-12-23T05:07:37.904Z,41.50
2022-12-23T05:10:05.343Z,108.55
2022-12-23T05:12:32.615Z,225.77
2022-12-23T05:14:59.715Z,162.23
2022-12-23T05:17:26.878Z,189.87
2022-12-23T05:19:53.951Z,144.23
2022-12-23T05:22:21.004Z,66.47
2022-12-23T05:24:48.034Z,34.63
2022-12-23T05:27:15.176Z,24.53
2022-12-23T05:29:42.324Z,32.37
2022-12-23T05:32:09.477Z,50.97
2022-12-23T05:34:36.671Z,35.45
2022-12-23T05:37:03.796Z,24.42
2022-12-23T05:39:30.914Z,23.90
2022-12-23T05:41:57.974Z,21.17
2022-12-23T05:44:25.027Z,26.17
2022-12-23T05:46:52.123Z,24.03
2022-12-23T05:49:19.432Z,27.60
2022-12-23T05:51:46.620Z,21.60
2022-12-23T05:54:13.900Z,24.27
2022-12-23T05:56:41.215Z,22.40
2022-12-23T05:59:09.121Z,28.00
2022-12-23T06:01:36.354Z,21.60
2022-12-23T06:04:03.783Z,19.17
2022-12-23T06:06:30.996Z,24.00
2022-12-23T06:09:00.069Z,21.80
2022-12-23T06:11:27.822Z,19.63
2022-12-23T06:13:54.960Z,19.73
2022-12-23T06:16:22.295Z,24.43
2022-12-23T06:18:49.415Z,23.10
2022-12-23T06:21:16.484Z,18.73
2022-12-23T06:23:43.577Z,24.43
2022-12-23T06:26:10.614Z,20.27
2022-12-23T06:28:37.668Z,24.03
2022-12-23T06:31:05.066Z,20.07
2022-12-23T06:33:32.111Z,19.27
2022-12-23T06:35:59.296Z,23.63
2022-12-23T06:38:26.406Z,24.63
2022-12-23T06:40:53.480Z,22.37
2022-12-23T06:43:20.647Z,19.80
2022-12-23T06:45:49.170Z,22.30
2022-12-23T06:48:17.093Z,20.50
2022-12-23T06:50:44.646Z,21.20
2022-12-23T06:53:11.702Z,22.40
2022-12-23T06:55:39.035Z,21.97
2022-12-23T06:58:06.598Z,19.27
2022-12-23T07:00:33.641Z,21.00
2022-12-23T07:03:00.928Z,23.27
2022-12-23T07:05:34.884Z,24.43
2022-12-23T07:08:04.039Z,22.70
2022-12-23T07:10:31.082Z,19.23
2022-12-23T07:12:58.104Z,23.27
2022-12-23T07:15:25.147Z,22.67
2022-12-23T07:17:52.229Z,22.03
2022-12-23T07:20:19.340Z,24.47
2022-12-23T07:22:46.435Z,24.40
2022-12-23T07:25:13.797Z,19.63
2022-12-23T07:27:40.924Z,22.87
2022-12-23T07:30:09.148Z,21.93
2022-12-23T07:32:36.349Z,21.50
2022-12-23T07:35:03.610Z,20.07
2022-12-23T07:37:30.706Z,25.27
2022-12-23T07:39:57.974Z,20.73
2022-12-23T07:42:44.429Z,20.43
2022-12-23T07:45:12.339Z,20.03
2022-12-23T07:47:39.554Z,20.43
2022-12-23T07:50:07.723Z,24.70
2022-12-23T07:52:34.829Z,23.40
2022-12-23T07:55:01.982Z,28.30
2022-12-23T07:57:29.481Z,20.53
2022-12-23T07:59:56.894Z,22.60
2022-12-23T08:02:25.343Z,24.17
2022-12-23T08:04:52.795Z,22.37
2022-12-23T08:07:20.020Z,23.90
2022-12-23T08:09:47.087Z,20.33
2022-12-23T08:12:14.184Z,23.13
2022-12-23T08:14:41.218Z,22.00
2022-12-23T08:17:08.666Z,23.80
2022-12-23T08:19:35.822Z,26.23
2022-12-23T08:22:03.192Z,28.90
2022-12-23T08:24:30.308Z,23.23
2022-12-23T08:26:58.360Z,20.67
2022-12-23T08:29:25.596Z,28.10
2022-12-23T08:31:54.174Z,26.07
2022-12-23T08:34:21.199Z,50.07
2022-12-23T08:36:48.462Z,29.53
2022-12-23T08:39:15.886Z,30.10
2022-12-23T08:41:47.239Z,33.37
2022-12-23T08:44:17.003Z,83.07
2022-12-23T08:46:44.552Z,57.30
2022-12-23T08:49:11.951Z,31.13
2022-12-23T08:51:39.490Z,32.97
2022-12-23T08:54:07.400Z,27.77
2022-12-23T08:56:39.191Z,28.17
2022-12-23T08:59:06.734Z,32.70
2022-12-23T09:01:35.062Z,213.07
2022-12-23T09:04:05.528Z,226.17
2022-12-23T09:06:37.128Z,216.70
2022-12-23T09:09:05.811Z,227.40
2022-12-23T09:11:33.764Z,222.47
2022-12-23T09:14:02.042Z,225.07
2022-12-23T09:16:29.844Z,212.23
2022-12-23T09:18:57.472Z,217.50
2022-12-23T09:21:25.253Z,207.90
2022-12-23T09:23:52.935Z,215.13
2022-12-23T09:26:27.449Z,214.43
2022-12-23T09:28:56.399Z,205.80
2022-12-23T09:31:26.720Z,214.77
2022-12-23T09:33:56.558Z,209.03
2022-12-23T09:36:24.148Z,210.60
2022-12-23T09:38:56.513Z,210.07
2022-12-23T09:41:32.866Z,205.27
2022-12-23T09:44:30.553Z,205.23
2022-12-23T09:47:03.560Z,202.37
2022-12-23T09:49:31.324Z,202.00
2022-12-23T09:52:04.095Z,207.07
2022-12-23T09:54:41.915Z,203.80
2022-12-23T09:57:24.970Z,205.80
2022-12-23T10:00:15.744Z,207.33
2022-12-23T10:03:04.149Z,204.87
2022-12-23T10:06:07.793Z,205.27
2022-12-23T10:08:44.354Z,208.13
2022-12-23T10:11:21.962Z,208.40
2022-12-23T10:13:53.339Z,204.20
2022-12-23T10:16:32.941Z,206.03
2022-12-23T10:19:08.553Z,205.10
2022-12-23T10:21:47.652Z,208.13
2022-12-23T10:24:32.527Z,206.90
2022-12-23T10:27:06.578Z,203.60
2022-12-23T10:29:34.368Z,208.90
2022-12-23T10:32:46.185Z,211.37
2022-12-23T10:35:45.734Z,207.83
2022-12-23T10:38:27.722Z,208.90
2022-12-23T10:41:19.932Z,206.07
2022-12-23T10:44:05.077Z,207.17
2022-12-23T10:46:53.656Z,210.67
2022-12-23T10:49:41.762Z,206.57
2022-12-23T10:52:32.367Z,206.13
2022-12-23T10:54:59.486Z,211.83
2022-12-23T10:57:27.100Z,216.47
2022-12-23T10:59:54.619Z,208.73
2022-12-23T11:02:55.847Z,204.20
2022-12-23T11:05:27.850Z,213.23
2022-12-23T11:07:55.851Z,212.30
2022-12-23T11:10:28.706Z,212.10
2022-12-23T11:12:56.247Z,211.77
2022-12-23T11:15:41.509Z,209.00
2022-12-23T11:18:14.621Z,204.90
2022-12-23T11:20:45.010Z,217.97
2022-12-23T11:23:28.743Z,213.63
2022-12-23T11:26:09.128Z,209.40
2022-12-23T11:28:40.609Z,210.60
2022-12-23T11:31:14.497Z,211.60
2022-12-23T11:33:54.816Z,216.13
2022-12-23T11:36:28.209Z,208.83
2022-12-23T11:39:32.930Z,215.47
2022-12-23T11:42:12.431Z,211.93
2022-12-23T11:44:44.181Z,204.07
2022-12-23T11:47:23.153Z,203.83
2022-12-23T11:50:03.124Z,213.30
2022-12-23T11:52:33.531Z,211.70
2022-12-23T11:55:03.569Z,212.00
2022-12-23T11:57:45.091Z,211.27
2022-12-23T12:00:25.868Z,210.37
2022-12-23T12:02:56.534Z,206.07
2022-12-23T12:05:35.009Z,208.70
2022-12-23T12:08:06.924Z,207.83
2022-12-23T12:10:37.433Z,208.77
2022-12-23T12:13:28.267Z,214.40
2022-12-23T12:16:07.529Z,211.20
2022-12-23T12:18:35.464Z,207.83
2022-12-23T12:21:11.519Z,205.57
2022-12-23T12:24:14.730Z,203.53
2022-12-23T12:26:44.377Z,216.17
2022-12-23T12:29:39.579Z,219.70
2022-12-23T12:32:33.609Z,227.30
2022-12-23T12:35:07.067Z,218.60
2022-12-23T12:37:57.385Z,212.40
2022-12-23T12:40:46.146Z,215.33
2022-12-23T12:43:32.612Z,219.07
2022-12-23T12:46:11.921Z,203.10
2022-12-23T12:49:00.114Z,208.40
2022-12-23T12:52:01.175Z,207.80
2022-12-23T12:54:42.134Z,211.83
2022-12-23T12:57:16.004Z,207.63
2022-12-23T12:59:44.253Z,209.97
2022-12-23T13:02:52.252Z,207.23
2022-12-23T13:06:04.913Z,210.03
2022-12-23T13:08:56.636Z,208.77
2022-12-23T13:11:45.531Z,205.10
2022-12-23T13:14:52.981Z,203.07
2022-12-23T13:17:29.329Z,204.77
2022-12-23T13:20:24.105Z,214.73
2022-12-23T13:23:10.332Z,210.13
2022-12-23T13:26:11.664Z,204.27
2022-12-23T13:28:51.328Z,206.13
2022-12-23T13:31:40.033Z,201.77
2022-12-23T13:34:18.952Z,207.93
2022-12-23T13:36:58.798Z,204.73
2022-12-23T13:40:17.814Z,202.30
2022-12-23T13:42:53.883Z,202.67
2022-12-23T13:45:26.583Z,204.40
2022-12-23T13:48:38.952Z,201.83
2022-12-23T13:51:32.480Z,204.53
2022-12-23T13:54:16.899Z,208.17
2022-12-23T13:57:08.406Z,200.77
2022-12-23T14:00:08.569Z,210.43
2022-12-23T14:02:42.920Z,201.47
2022-12-23T14:05:36.128Z,200.90
2022-12-23T14:08:35.228Z,205.27
2022-12-23T14:11:26.719Z,203.67
2022-12-23T14:14:04.890Z,206.53
2022-12-23T14:17:10.059Z,226.80
2022-12-23T14:19:58.608Z,214.97
2022-12-23T14:22:45.420Z,199.50
2022-12-23T14:25:49.009Z,204.67
2022-12-23T14:28:40.179Z,207.00
2022-12-23T14:31:35.160Z,208.90
2022-12-23T14:34:22.966Z,208.50
2022-12-23T14:37:16.452Z,201.43
2022-12-23T14:39:44.135Z,202.00
2022-12-23T14:42:16.693Z,255.57
2022-12-23T14:44:47.241Z,216.67
2022-12-23T14:47:40.641Z,209.03
2022-12-23T14:50:59.926Z,202.70
2022-12-23T14:53:29.927Z,202.27
2022-12-23T14:56:15.079Z,209.07
2022-12-23T14:59:23.234Z,204.47
2022-12-23T15:01:59.264Z,207.23
2022-12-23T15:04:34.989Z,200.07
2022-12-23T15:07:10.975Z,207.47
2022-12-23T15:10:00.718Z,205.10
2022-12-23T15:12:41.438Z,217.27
2022-12-23T15:15:17.592Z,217.80
2022-12-23T15:17:44.918Z,223.27
2022-12-23T15:20:20.848Z,218.03
2022-12-23T15:22:48.673Z,219.27
2022-12-23T15:25:33.102Z,210.73
2022-12-23T15:28:02.982Z,229.73
2022-12-23T15:30:38.502Z,221.60
2022-12-23T15:33:35.035Z,215.07
2022-12-23T15:35:56.400Z,221.70
2022-12-23T15:38:28.841Z,211.00
2022-12-23T15:41:06.887Z,226.10
2022-12-23T15:43:42.409Z,224.23
2022-12-23T15:46:25.049Z,230.10
2022-12-23T15:48:56.424Z,214.40
2022-12-23T15:52:06.434Z,212.50
2022-12-23T15:54:34.414Z,209.20
2022-12-23T15:57:04.175Z,209.00
2022-12-23T15:59:39.159Z,208.83
2022-12-23T16:03:01.010Z,226.83
2022-12-23T16:05:36.018Z,217.50
2022-12-23T16:08:08.854Z,216.73
2022-12-23T16:10:36.512Z,214.40
2022-12-23T16:13:03.982Z,225.73
2022-12-23T16:15:33.424Z,211.40
2022-12-23T16:18:19.431Z,223.37
2022-12-23T16:20:56.200Z,212.57
2022-12-23T16:23:24.313Z,209.10
2022-12-23T16:25:53.379Z,205.67
2022-12-23T16:28:29.294Z,200.80
2022-12-23T16:30:58.217Z,213.30
2022-12-23T16:33:36.378Z,217.47
2022-12-23T16:36:27.620Z,223.73
2022-12-23T16:39:06.614Z,215.67
2022-12-23T16:41:34.889Z,209.10
2022-12-23T16:44:02.721Z,205.73
2022-12-23T16:46:34.251Z,211.93
2022-12-23T16:49:05.124Z,225.80
2022-12-23T16:51:34.259Z,219.07
2022-12-23T16:54:02.188Z,220.20
2022-12-23T16:56:35.276Z,208.93
2022-12-23T16:59:02.881Z,208.90
2022-12-23T17:01:39.025Z,206.97
2022-12-23T17:04:07.101Z,209.93
2022-12-23T17:06:35.973Z,210.37
2022-12-23T17:09:05.083Z,206.97
2022-12-23T17:11:49.041Z,208.17
2022-12-23T17:14:22.874Z,215.00
2022-12-23T17:16:51.036Z,218.97
2022-12-23T17:19:27.879Z,214.23
2022-12-23T17:22:02.390Z,223.23
2022-12-23T17:24:29.787Z,218.63
2022-12-23T17:26:57.477Z,218.00
2022-12-23T17:29:25.133Z,213.13
2022-12-23T17:31:52.985Z,219.90
2022-12-23T17:34:24.634Z,214.53
2022-12-23T17:36:51.871Z,217.77
2022-12-23T17:39:21.411Z,213.13
2022-12-23T17:41:49.146Z,216.53
2022-12-23T17:44:18.375Z,212.73
2022-12-23T17:46:46.710Z,210.20
2022-12-23T17:49:13.821Z,203.03
2022-12-23T17:51:42.546Z,210.10
2022-12-23T17:54:26.136Z,216.27
2022-12-23T17:56:53.980Z,214.43
2022-12-23T17:59:21.970Z,218.03
2022-12-23T18:01:50.055Z,220.33
2022-12-23T18:04:17.356Z,209.57
2022-12-23T18:06:44.441Z,217.00
2022-12-23T18:09:11.512Z,216.90
2022-12-23T18:11:46.528Z,210.97
2022-12-23T18:14:26.790Z,223.27
2022-12-23T18:16:54.123Z,239.50
2022-12-23T18:19:21.854Z,230.20
2022-12-23T18:21:49.859Z,227.90
2022-12-23T18:24:17.617Z,218.53
2022-12-23T18:26:45.097Z,222.37
2022-12-23T18:29:12.675Z,226.50
2022-12-23T18:31:51.029Z,219.23
2022-12-23T18:34:19.775Z,225.37
2022-12-23T18:36:48.389Z,233.43
2022-12-23T18:39:16.235Z,235.07
2022-12-23T18:41:43.673Z,223.53
2022-12-23T18:44:19.909Z,227.03
2022-12-23T18:46:48.271Z,218.43
2022-12-23T18:49:15.904Z,217.57
2022-12-23T18:51:43.362Z,213.33
2022-12-23T18:54:19.702Z,210.20
2022-12-23T18:56:47.981Z,216.63
2022-12-23T18:59:29.249Z,211.80
2022-12-23T19:01:57.853Z,225.87
2022-12-23T19:04:26.236Z,217.37
2022-12-23T19:06:56.091Z,226.23
2022-12-23T19:09:24.731Z,214.43
2022-12-23T19:11:53.924Z,225.10
2022-12-23T19:14:21.802Z,222.17
2022-12-23T19:16:52.108Z,223.93
2022-12-23T19:19:21.034Z,222.03
2022-12-23T19:21:48.654Z,234.83
2022-12-23T19:24:16.134Z,217.83
2022-12-23T19:26:43.289Z,217.30
2022-12-23T19:29:10.755Z,222.90
2022-12-23T19:31:37.912Z,249.50
2022-12-23T19:34:08.234Z,292.83
2022-12-23T19:36:40.357Z,331.07
2022-12-23T19:39:08.752Z,282.87
2022-12-23T19:41:36.206Z,231.37
2022-12-23T19:44:04.065Z,217.90
2022-12-23T19:46:31.557Z,209.80
2022-12-23T19:48:58.714Z,213.03
2022-12-23T19:51:26.204Z,218.43
2022-12-23T19:53:53.746Z,216.63
2022-12-23T19:56:21.926Z,217.57
2022-12-23T19:58:49.976Z,219.60
2022-12-23T20:01:21.415Z,219.37
2022-12-23T20:03:49.951Z,222.87
2022-12-23T20:06:26.888Z,218.80
2022-12-23T20:09:00.062Z,221.20
2022-12-23T20:11:30.757Z,215.77
2022-12-23T20:13:58.954Z,221.23
2022-12-23T20:16:27.288Z,214.93
2022-12-23T20:18:55.237Z,212.27
2022-12-23T20:21:22.834Z,219.13
2022-12-23T20:23:51.003Z,222.43
2022-12-23T20:26:19.625Z,218.90
2022-12-23T20:28:47.210Z,219.80
2022-12-23T20:31:23.711Z,220.70
2022-12-23T20:33:52.184Z,219.10
2022-12-23T20:36:25.387Z,229.93
2022-12-23T20:38:53.594Z,239.27
2022-12-23T20:41:25.533Z,235.63
2022-12-23T20:44:31.517Z,244.47
2022-12-23T20:46:40.726Z,217.27
2022-12-23T20:49:08.214Z,217.80
2022-12-23T20:51:35.281Z,216.03
2022-12-23T20:54:02.707Z,221.47
2022-12-23T20:56:30.535Z,217.37
2022-12-23T20:58:59.398Z,225.30
2022-12-23T21:01:35.211Z,222.20
2022-12-23T21:04:18.092Z,224.83
2022-12-23T21:06:45.950Z,237.27
2022-12-23T21:09:14.974Z,216.57
2022-12-23T21:11:45.621Z,216.10
2022-12-23T21:14:14.770Z,219.93
2022-12-23T21:16:42.959Z,214.20
2022-12-23T21:19:19.670Z,225.17
2022-12-23T21:21:47.859Z,225.60
2022-12-23T21:24:15.764Z,222.27
2022-12-23T21:26:43.878Z,220.30
2022-12-23T21:29:11.752Z,225.37
2022-12-23T21:31:41.143Z,238.40
2022-12-23T21:34:09.119Z,214.67
2022-12-23T21:36:38.868Z,220.73
2022-12-23T21:39:07.578Z,219.43
2022-12-23T21:41:38.595Z,242.30
2022-12-23T21:44:06.473Z,245.77
2022-12-23T21:46:34.335Z,255.87
2022-12-23T21:49:01.978Z,236.60
2022-12-23T21:51:39.476Z,226.47
2022-12-23T21:54:10.136Z,216.90
2022-12-23T21:56:37.780Z,213.13
2022-12-23T21:59:11.157Z,218.40
2022-12-23T22:01:38.522Z,209.57
2022-12-23T22:04:05.996Z,212.33
2022-12-23T22:06:37.487Z,214.23
2022-12-23T22:09:07.180Z,222.07
2022-12-23T22:11:36.674Z,221.03
2022-12-23T22:14:07.542Z,224.43
2022-12-23T22:16:36.643Z,258.87
2022-12-23T22:19:06.601Z,262.73
2022-12-23T22:21:35.071Z,234.73
2022-12-23T22:24:03.438Z,220.80
2022-12-23T22:26:32.777Z,224.93
2022-12-23T22:29:03.277Z,227.07
2022-12-23T22:31:47.794Z,217.03
2022-12-23T22:34:21.333Z,213.57
2022-12-23T22:36:49.272Z,228.47
2022-12-23T22:39:21.642Z,240.20
2022-12-23T22:41:51.056Z,251.57
2022-12-23T22:44:18.565Z,261.60
2022-12-23T22:46:45.866Z,239.97
2022-12-23T22:49:14.646Z,237.97
2022-12-23T22:51:43.325Z,241.40
2022-12-23T22:54:11.283Z,230.47
2022-12-23T22:56:38.876Z,249.83
2022-12-23T22:59:06.525Z,234.63
2022-12-23T23:01:36.404Z,229.23
2022-12-23T23:04:04.911Z,231.87
2022-12-23T23:06:39.540Z,227.87
2022-12-23T23:09:11.164Z,228.33
2022-12-23T23:11:38.842Z,231.67
2022-12-23T23:14:06.529Z,234.93
2022-12-23T23:16:34.225Z,234.77
2022-12-23T23:19:04.014Z,263.17
2022-12-23T23:21:31.507Z,276.43
2022-12-23T23:23:58.679Z,253.97
2022-12-23T23:26:27.548Z,237.90
2022-12-23T23:28:55.976Z,238.23
2022-12-23T23:34:11.443Z,286.27
2022-12-23T23:36:39.202Z,280.90
2022-12-23T23:39:06.721Z,272.63
2022-12-23T23:41:34.328Z,296.27
2022-12-23T23:44:01.780Z,275.90
2022-12-23T23:46:30.666Z,268.93
2022-12-23T23:48:58.353Z,257.13
2022-12-23T23:51:25.673Z,266.00
2022-12-23T23:53:53.137Z,237.33
2022-12-23T23:56:25.459Z,247.67
2022-12-23T23:58:53.281Z,241.50
